Time;durP1;ratioP1;P1;durP2;ratioP2;P2;SDS_P1;SDS_P2;PMS_P1;PMS_P2;Temp;Humidity;BMP_temperature;BMP_pressure;BME280_temperature;BME280_humidity;BME280_pressure;Samples;Min_cycle;Max_cycle;Signal;HPM_P1;HPM_P2
2022/11/16 00:02:09;;;;;;;67.65;25.98;;;;;;;;;;6278802;22;20061;-87
2022/11/16 00:04:35;;;;;;;69.22;24.50;;;;;;;;;;6252218;22;20004;-87
2022/11/16 00:07:01;;;;;;;72.55;26.70;;;;;;;;;;6250693;22;20008;-87
2022/11/16 00:09:30;;;;;;;73.43;26.05;;;;;;;;;;6249598;22;19999;-87
2022/11/16 00:11:57;;;;;;;67.47;25.75;;;;;;;;;;6251601;22;20004;-87
2022/11/16 00:14:24;;;;;;;76.18;26.60;;;;;;;;;;6281627;22;20031;-87
2022/11/16 00:16:50;;;;;;;66.97;26.73;;;;;;;;;;6254999;22;19996;-87
2022/11/16 00:19:16;;;;;;;69.30;23.75;;;;;;;;;;6258680;22;20071;-87
2022/11/16 00:21:42;;;;;;;79.50;26.30;;;;;;;;;;6257745;22;20004;-86
2022/11/16 00:24:11;;;;;;;77.28;27.05;;;;;;;;;;6276565;22;20034;-84
2022/11/16 00:26:37;;;;;;;75.10;26.98;;;;;;;;;;6277685;22;20344;-85
2022/11/16 00:29:03;;;;;;;84.53;29.08;;;;;;;;;;6278363;22;19995;-87
2022/11/16 00:31:29;;;;;;;77.40;28.92;;;;;;;;;;6302902;22;20336;-87
2022/11/16 00:33:55;;;;;;;78.80;26.48;;;;;;;;;;6296284;22;20006;-85
2022/11/16 00:36:21;;;;;;;86.35;31.40;;;;;;;;;;6283512;22;20007;-87
2022/11/16 00:38:47;;;;;;;89.22;30.42;;;;;;;;;;6255437;22;20003;-88
2022/11/16 00:41:13;;;;;;;96.63;32.92;;;;;;;;;;6256035;22;20057;-87
2022/11/16 00:43:39;;;;;;;93.18;32.80;;;;;;;;;;6253573;22;20093;-87
2022/11/16 00:46:05;;;;;;;110.45;32.70;;;;;;;;;;6281787;22;20432;-87
2022/11/16 00:48:31;;;;;;;87.43;30.13;;;;;;;;;;6254958;22;19999;-87
2022/11/16 00:50:57;;;;;;;83.15;32.25;;;;;;;;;;6252551;22;19996;-87
2022/11/16 00:53:23;;;;;;;99.72;32.90;;;;;;;;;;6255715;22;20003;-87
2022/11/16 00:55:49;;;;;;;91.43;31.00;;;;;;;;;;6253873;22;20014;-86
2022/11/16 00:58:16;;;;;;;94.20;31.02;;;;;;;;;;6274352;22;19995;-83
2022/11/16 01:00:42;;;;;;;103.63;33.28;;;;;;;;;;6277147;22;19995;-86
2022/11/16 01:03:08;;;;;;;107.55;33.17;;;;;;;;;;6277324;22;20007;-86
2022/11/16 01:05:34;;;;;;;105.40;32.08;;;;;;;;;;6274088;22;20076;-86
2022/11/16 01:08:00;;;;;;;100.88;33.42;;;;;;;;;;6284489;22;20078;-86
2022/11/16 01:10:27;;;;;;;100.95;32.28;;;;;;;;;;6283738;22;19999;-87
2022/11/16 01:12:53;;;;;;;104.30;33.20;;;;;;;;;;6256118;22;20086;-86
2022/11/16 01:15:22;;;;;;;94.68;32.70;;;;;;;;;;6257565;22;20309;-86
2022/11/16 01:17:48;;;;;;;95.32;32.92;;;;;;;;;;6284757;22;20023;-87
2022/11/16 01:20:17;;;;;;;108.80;34.05;;;;;;;;;;6255733;22;20347;-87
2022/11/16 01:22:43;;;;;;;108.93;33.33;;;;;;;;;;6254428;22;20012;-87
2022/11/16 01:25:10;;;;;;;118.30;35.38;;;;;;;;;;6256582;22;20030;-86
2022/11/16 01:27:36;;;;;;;104.00;35.40;;;;;;;;;;6254919;22;20008;-87
2022/11/16 01:30:03;;;;;;;129.63;36.22;;;;;;;;;;6281061;22;20003;-86
2022/11/16 01:32:29;;;;;;;118.80;36.47;;;;;;;;;;6253555;22;20055;-86
2022/11/16 01:34:55;;;;;;;97.97;33.08;;;;;;;;;;6254471;22;20038;-86
2022/11/16 01:37:21;;;;;;;101.78;34.45;;;;;;;;;;6286073;22;20483;-87
2022/11/16 01:39:48;;;;;;;99.20;33.83;;;;;;;;;;6277315;22;20007;-86
2022/11/16 01:42:21;;;;;;;126.40;38.05;;;;;;;;;;6275091;22;19996;-86
2022/11/16 01:44:47;;;;;;;119.20;36.80;;;;;;;;;;6279624;22;20010;-85
2022/11/16 01:47:14;;;;;;;109.47;35.55;;;;;;;;;;6277067;22;19996;-85
2022/11/16 01:49:48;;;;;;;121.82;38.60;;;;;;;;;;6250556;22;20004;-84
2022/11/16 01:52:19;;;;;;;114.47;36.47;;;;;;;;;;6277376;22;19999;-86
2022/11/16 01:54:46;;;;;;;133.43;38.90;;;;;;;;;;6276582;22;20061;-86
2022/11/16 01:57:15;;;;;;;109.18;36.13;;;;;;;;;;6251224;22;20339;-86
2022/11/16 01:59:42;;;;;;;114.38;39.22;;;;;;;;;;6250816;22;20003;-85
2022/11/16 02:02:08;;;;;;;128.68;38.20;;;;;;;;;;6277288;22;20064;-86
2022/11/16 02:04:34;;;;;;;108.40;37.25;;;;;;;;;;6249248;22;19999;-86
2022/11/16 02:07:09;;;;;;;138.25;42.17;;;;;;;;;;6281959;22;19999;-86
2022/11/16 02:09:53;;;;;;;144.30;40.65;;;;;;;;;;6253821;22;20038;-87
2022/11/16 02:12:22;;;;;;;128.27;40.53;;;;;;;;;;6255727;22;20336;-84
2022/11/16 02:14:51;;;;;;;142.68;40.95;;;;;;;;;;6265828;22;20408;-87
2022/11/16 02:17:23;;;;;;;130.13;42.55;;;;;;;;;;6284553;22;20032;-85
2022/11/16 02:20:08;;;;;;;123.97;41.95;;;;;;;;;;6255869;22;20008;-87
2022/11/16 02:22:53;;;;;;;145.52;41.42;;;;;;;;;;6284754;22;20007;-85
2022/11/16 02:25:28;;;;;;;115.15;39.38;;;;;;;;;;6256508;22;20006;-86
2022/11/16 02:28:04;;;;;;;130.50;39.92;;;;;;;;;;6283527;22;19999;-86
2022/11/16 02:30:30;;;;;;;147.55;41.38;;;;;;;;;;6282787;22;20006;-86
2022/11/16 02:33:08;;;;;;;146.73;44.45;;;;;;;;;;6256422;22;19999;-86
2022/11/16 02:35:46;;;;;;;132.65;38.92;;;;;;;;;;6284431;22;20352;-86
2022/11/16 02:38:18;;;;;;;112.45;39.60;;;;;;;;;;6282212;22;20022;-86
2022/11/16 02:40:47;;;;;;;127.32;41.03;;;;;;;;;;6283433;22;20026;-85
2022/11/16 02:43:16;;;;;;;118.63;42.20;;;;;;;;;;6257806;22;20000;-83
2022/11/16 02:45:48;;;;;;;112.13;40.33;;;;;;;;;;6285476;22;20003;-82
2022/11/16 02:48:17;;;;;;;138.17;41.73;;;;;;;;;;6285645;22;20000;-84
2022/11/16 02:50:43;;;;;;;123.78;40.70;;;;;;;;;;6258822;22;20004;-85
2022/11/16 02:53:09;;;;;;;113.90;38.80;;;;;;;;;;6259223;22;20003;-84
2022/11/16 02:55:35;;;;;;;108.72;39.15;;;;;;;;;;6258767;22;20308;-85
2022/11/16 02:58:03;;;;;;;123.60;40.05;;;;;;;;;;6285377;22;20069;-85
2022/11/16 03:00:35;;;;;;;122.00;41.72;;;;;;;;;;6258227;22;20004;-85
2022/11/16 03:03:10;;;;;;;140.35;42.85;;;;;;;;;;6259349;22;20011;-85
2022/11/16 03:05:49;;;;;;;122.43;40.45;;;;;;;;;;6258932;22;20042;-83
2022/11/16 03:08:22;;;;;;;122.68;39.58;;;;;;;;;;6285250;22;19995;-84
2022/11/16 03:13:39;;;;;;;106.75;38.65;;;;;;;;;;6286462;22;20015;-84
2022/11/16 03:16:18;;;;;;;128.48;39.92;;;;;;;;;;6286180;22;20011;-85
2022/11/16 03:18:45;;;;;;;105.30;37.92;;;;;;;;;;6257668;22;20003;-83
2022/11/16 03:21:17;;;;;;;113.68;37.50;;;;;;;;;;6285841;22;20134;-84
2022/11/16 03:23:45;;;;;;;109.20;39.25;;;;;;;;;;6255956;22;20061;-85
2022/11/16 03:26:14;;;;;;;121.00;40.42;;;;;;;;;;6286230;22;19996;-84
2022/11/16 03:28:46;;;;;;;117.60;37.92;;;;;;;;;;6256694;22;20019;-83
2022/11/16 03:31:14;;;;;;;134.50;39.55;;;;;;;;;;6285129;22;20000;-83
2022/11/16 03:33:44;;;;;;;116.47;36.95;;;;;;;;;;6284846;22;20121;-84
2022/11/16 03:36:19;;;;;;;126.60;39.80;;;;;;;;;;6285541;22;20427;-84
2022/11/16 03:38:49;;;;;;;126.53;39.25;;;;;;;;;;6285989;22;20059;-82
2022/11/16 03:41:15;;;;;;;106.75;37.08;;;;;;;;;;6284172;22;19999;-83
2022/11/16 03:43:43;;;;;;;103.50;35.70;;;;;;;;;;6257074;22;20459;-82
2022/11/16 03:46:09;;;;;;;122.43;38.42;;;;;;;;;;6283537;22;20012;-83
2022/11/16 03:48:36;;;;;;;114.88;37.85;;;;;;;;;;6283999;22;20004;-83
2022/11/16 03:51:02;;;;;;;127.93;38.78;;;;;;;;;;6255236;22;20004;-83
2022/11/16 03:53:28;;;;;;;95.47;35.70;;;;;;;;;;6282457;22;20035;-83
2022/11/16 03:55:55;;;;;;;128.15;39.67;;;;;;;;;;6257559;22;20008;-83
2022/11/16 03:58:21;;;;;;;126.30;39.85;;;;;;;;;;6258081;22;20071;-82
2022/11/16 04:00:47;;;;;;;134.27;39.97;;;;;;;;;;6283280;22;20014;-83
2022/11/16 04:03:13;;;;;;;124.72;38.22;;;;;;;;;;6283187;22;20078;-82
2022/11/16 04:25:04;;;;;;;130.57;40.47;;;;;;;;;;6281541;22;20014;-82
2022/11/16 04:30:15;;;;;;;123.35;40.00;;;;;;;;;;6282785;22;20118;-82
2022/11/16 04:38:27;;;;;;;119.20;39.70;;;;;;;;;;6189549;23;20084;-82
2022/11/16 04:40:53;;;;;;;111.40;38.17;;;;;;;;;;6264283;22;20053;-82
2022/11/16 04:43:20;;;;;;;111.78;36.22;;;;;;;;;;6283553;22;20053;-80
2022/11/16 04:48:31;;;;;;;128.45;38.70;;;;;;;;;;6282844;22;20064;-82
2022/11/16 04:50:57;;;;;;;103.30;36.97;;;;;;;;;;6255263;22;20004;-81
2022/11/16 04:53:25;;;;;;;151.93;43.42;;;;;;;;;;6254077;22;20082;-81
2022/11/16 04:55:51;;;;;;;121.40;37.38;;;;;;;;;;6282635;22;20061;-81
2022/11/16 04:58:17;;;;;;;143.48;39.10;;;;;;;;;;6258066;22;20433;-81
2022/11/16 05:00:43;;;;;;;128.45;38.38;;;;;;;;;;6254772;22;20004;-81
2022/11/16 05:03:09;;;;;;;112.80;36.47;;;;;;;;;;6297874;22;20018;-79
2022/11/16 05:05:36;;;;;;;137.55;39.28;;;;;;;;;;6304713;22;20071;-82
2022/11/16 05:08:02;;;;;;;109.45;35.65;;;;;;;;;;6261427;22;20448;-81
2022/11/16 05:10:28;;;;;;;122.00;39.67;;;;;;;;;;6285107;22;20004;-81
2022/11/16 05:12:54;;;;;;;108.97;37.00;;;;;;;;;;6286167;22;19996;-81
2022/11/16 05:15:20;;;;;;;125.90;37.50;;;;;;;;;;6258329;22;20003;-81
2022/11/16 05:17:46;;;;;;;125.05;39.72;;;;;;;;;;6283584;22;20027;-81
2022/11/16 05:22:57;;;;;;;125.35;38.28;;;;;;;;;;6280246;22;20030;-81
2022/11/16 05:25:23;;;;;;;109.80;35.38;;;;;;;;;;6284998;22;20000;-81
2022/11/16 05:27:49;;;;;;;117.07;37.10;;;;;;;;;;6258489;22;20007;-82
2022/11/16 05:30:16;;;;;;;121.28;37.72;;;;;;;;;;6283945;22;19999;-82
2022/11/16 05:32:42;;;;;;;136.88;39.65;;;;;;;;;;6286450;22;20004;-80
2022/11/16 05:35:08;;;;;;;121.40;39.20;;;;;;;;;;6283267;22;20000;-79
2022/11/16 05:37:34;;;;;;;133.68;41.38;;;;;;;;;;6282820;22;20000;-81
2022/11/16 05:40:00;;;;;;;141.45;40.38;;;;;;;;;;6284984;22;20006;-81
2022/11/16 05:42:26;;;;;;;120.18;37.25;;;;;;;;;;6284239;22;19999;-81
2022/11/16 05:44:52;;;;;;;116.60;38.85;;;;;;;;;;6283074;22;20012;-80
2022/11/16 05:47:18;;;;;;;126.57;38.42;;;;;;;;;;6284501;22;20003;-81
2022/11/16 05:49:44;;;;;;;110.00;36.10;;;;;;;;;;6282476;22;20008;-80
2022/11/16 05:52:10;;;;;;;111.70;37.72;;;;;;;;;;6255011;22;19999;-80
2022/11/16 05:54:36;;;;;;;102.00;37.45;;;;;;;;;;6282907;22;20003;-81
2022/11/16 05:57:02;;;;;;;121.15;39.90;;;;;;;;;;6284311;22;20000;-80
2022/11/16 05:59:28;;;;;;;106.40;37.22;;;;;;;;;;6254674;22;20008;-80
2022/11/16 06:01:55;;;;;;;120.55;38.22;;;;;;;;;;6284584;22;19999;-79
2022/11/16 06:04:21;;;;;;;144.98;43.45;;;;;;;;;;6286801;22;19996;-81
2022/11/16 06:06:47;;;;;;;102.07;36.25;;;;;;;;;;6281532;22;20000;-80
2022/11/16 06:09:13;;;;;;;114.60;36.58;;;;;;;;;;6252378;22;20000;-80
2022/11/16 06:11:39;;;;;;;129.00;41.20;;;;;;;;;;6281328;22;20013;-81
2022/11/16 06:14:06;;;;;;;126.03;39.30;;;;;;;;;;6281333;22;19999;-80
2022/11/16 06:16:32;;;;;;;131.95;40.72;;;;;;;;;;6282955;22;20007;-81
2022/11/16 06:18:58;;;;;;;124.75;40.75;;;;;;;;;;6283926;22;20007;-81
2022/11/16 06:21:24;;;;;;;118.50;39.15;;;;;;;;;;6282358;22;20011;-80
2022/11/16 06:23:50;;;;;;;141.27;41.28;;;;;;;;;;6281749;22;20004;-80
2022/11/16 06:26:16;;;;;;;120.13;38.65;;;;;;;;;;6283097;22;20336;-81
2022/11/16 06:28:43;;;;;;;136.85;41.83;;;;;;;;;;6281240;22;19999;-80
2022/11/16 06:31:09;;;;;;;128.65;37.60;;;;;;;;;;6281731;22;20379;-80
2022/11/16 06:33:35;;;;;;;125.07;38.22;;;;;;;;;;6255770;22;20004;-81
2022/11/16 06:36:01;;;;;;;120.30;37.75;;;;;;;;;;6282552;22;20046;-81
2022/11/16 06:38:27;;;;;;;128.48;40.88;;;;;;;;;;6280499;22;20444;-80
2022/11/16 06:40:54;;;;;;;119.80;39.90;;;;;;;;;;6281140;22;20003;-80
2022/11/16 06:43:21;;;;;;;121.35;40.53;;;;;;;;;;6282040;22;20000;-80
2022/11/16 06:45:55;;;;;;;142.43;38.58;;;;;;;;;;6281221;22;20010;-80
2022/11/16 06:48:21;;;;;;;129.80;39.45;;;;;;;;;;6282530;22;20023;-80
2022/11/16 06:50:48;;;;;;;123.47;39.08;;;;;;;;;;6282819;22;19996;-80
2022/11/16 06:53:14;;;;;;;131.45;38.97;;;;;;;;;;6282628;22;20015;-78
2022/11/16 06:55:41;;;;;;;126.70;42.38;;;;;;;;;;6281916;22;20004;-79
2022/11/16 06:58:07;;;;;;;119.43;39.53;;;;;;;;;;6282822;22;20010;-79
2022/11/16 07:00:33;;;;;;;113.20;37.88;;;;;;;;;;6281305;22;20003;-80
2022/11/16 07:03:01;;;;;;;120.75;39.17;;;;;;;;;;6282105;22;20400;-79
2022/11/16 07:05:27;;;;;;;110.57;38.17;;;;;;;;;;6282450;22;20018;-80
2022/11/16 07:07:54;;;;;;;111.43;36.25;;;;;;;;;;6283125;22;20332;-80
2022/11/16 07:10:20;;;;;;;106.90;35.33;;;;;;;;;;6284948;22;19999;-78
2022/11/16 07:12:46;;;;;;;98.53;36.65;;;;;;;;;;6262761;22;20074;-79
2022/11/16 07:15:12;;;;;;;109.95;35.78;;;;;;;;;;6289802;22;20000;-78
2022/11/16 07:17:38;;;;;;;105.88;33.10;;;;;;;;;;6288192;22;19999;-78
2022/11/16 07:20:04;;;;;;;94.05;33.92;;;;;;;;;;6260141;22;20031;-80
2022/11/16 07:22:32;;;;;;;99.97;32.67;;;;;;;;;;6282069;22;20000;-79
2022/11/16 07:24:58;;;;;;;103.45;32.85;;;;;;;;;;6253668;22;20129;-80
2022/11/16 07:27:24;;;;;;;88.00;33.60;;;;;;;;;;6281308;22;19999;-80
2022/11/16 07:29:50;;;;;;;84.60;30.02;;;;;;;;;;6281353;22;20003;-79
2022/11/16 07:32:16;;;;;;;78.38;29.50;;;;;;;;;;6254775;22;20003;-80
2022/11/16 07:34:42;;;;;;;69.90;26.75;;;;;;;;;;6281948;22;20022;-79
2022/11/16 07:37:08;;;;;;;81.05;28.15;;;;;;;;;;6281196;22;20324;-79
2022/11/16 07:39:34;;;;;;;78.22;26.77;;;;;;;;;;6282690;22;19999;-80
2022/11/16 07:42:00;;;;;;;69.72;25.45;;;;;;;;;;6285494;22;20340;-78
2022/11/16 07:44:26;;;;;;;69.75;27.45;;;;;;;;;;6258968;22;20022;-79
2022/11/16 07:46:52;;;;;;;76.57;27.38;;;;;;;;;;6284476;22;20043;-79
2022/11/16 07:49:18;;;;;;;74.47;27.20;;;;;;;;;;6255272;22;20027;-80
2022/11/16 07:51:47;;;;;;;69.25;26.40;;;;;;;;;;6280843;22;20042;-79
2022/11/16 07:54:14;;;;;;;76.72;26.92;;;;;;;;;;6287850;22;20039;-79
2022/11/16 07:56:40;;;;;;;65.53;27.35;;;;;;;;;;6258919;22;20007;-79
2022/11/16 07:59:06;;;;;;;65.93;25.33;;;;;;;;;;6282956;22;20004;-80
2022/11/16 08:01:33;;;;;;;67.97;28.13;;;;;;;;;;6281773;22;20313;-80
2022/11/16 08:04:02;;;;;;;67.13;25.60;;;;;;;;;;6253825;22;20316;-80
2022/11/16 08:06:29;;;;;;;61.42;26.40;;;;;;;;;;6253398;22;20015;-80
2022/11/16 08:08:55;;;;;;;59.65;24.98;;;;;;;;;;6282063;22;20035;-80
2022/11/16 08:11:22;;;;;;;63.67;27.65;;;;;;;;;;6281285;22;20053;-80
2022/11/16 08:13:48;;;;;;;71.88;27.83;;;;;;;;;;6280306;22;20004;-80
2022/11/16 08:16:16;;;;;;;61.08;23.52;;;;;;;;;;6255022;22;20471;-80
2022/11/16 08:18:42;;;;;;;68.93;24.75;;;;;;;;;;6301005;22;20059;-78
2022/11/16 08:21:10;;;;;;;54.67;24.67;;;;;;;;;;6299536;22;20010;-80
2022/11/16 08:23:36;;;;;;;52.72;24.85;;;;;;;;;;6255737;22;20008;-80
2022/11/16 08:26:08;;;;;;;59.15;25.88;;;;;;;;;;6282607;22;19996;-79
2022/11/16 08:28:34;;;;;;;64.55;25.35;;;;;;;;;;6254820;22;20031;-80
2022/11/16 08:31:00;;;;;;;53.47;23.15;;;;;;;;;;6282443;22;20432;-80
2022/11/16 08:33:31;;;;;;;58.40;24.10;;;;;;;;;;6283354;22;20083;-79
2022/11/16 08:35:58;;;;;;;54.60;23.02;;;;;;;;;;6256951;22;20008;-80
2022/11/16 08:38:24;;;;;;;53.20;22.90;;;;;;;;;;6284100;22;19999;-80
2022/11/16 08:40:50;;;;;;;53.78;22.65;;;;;;;;;;6254449;22;20030;-79
2022/11/16 08:43:16;;;;;;;50.55;19.98;;;;;;;;;;6282475;22;20054;-79
2022/11/16 08:45:46;;;;;;;49.83;22.00;;;;;;;;;;6282890;22;20031;-79
2022/11/16 08:48:12;;;;;;;43.25;19.77;;;;;;;;;;6254484;22;20007;-79
2022/11/16 08:50:38;;;;;;;55.90;22.92;;;;;;;;;;6280942;22;19999;-79
2022/11/16 08:53:04;;;;;;;52.67;22.63;;;;;;;;;;6281269;22;20058;-79
2022/11/16 08:55:30;;;;;;;41.10;19.50;;;;;;;;;;6281423;22;20023;-79
2022/11/16 08:57:56;;;;;;;40.75;18.90;;;;;;;;;;6281663;22;20004;-80
2022/11/16 09:00:22;;;;;;;41.22;18.60;;;;;;;;;;6281880;22;20004;-79
2022/11/16 09:02:48;;;;;;;36.03;17.70;;;;;;;;;;6254230;22;20015;-79
2022/11/16 09:05:15;;;;;;;36.47;18.27;;;;;;;;;;6280685;22;20027;-79
2022/11/16 09:07:43;;;;;;;34.55;17.20;;;;;;;;;;6280918;22;20007;-79
2022/11/16 09:10:09;;;;;;;35.00;18.98;;;;;;;;;;6253980;22;20010;-79
2022/11/16 09:12:35;;;;;;;33.45;16.77;;;;;;;;;;6253768;22;20035;-79
2022/11/16 09:15:02;;;;;;;32.80;16.15;;;;;;;;;;6281083;22;20011;-80
2022/11/16 09:17:28;;;;;;;33.22;16.95;;;;;;;;;;6280296;22;20004;-79
2022/11/16 09:19:54;;;;;;;32.63;15.75;;;;;;;;;;6280401;22;20000;-79
2022/11/16 09:22:20;;;;;;;33.55;16.95;;;;;;;;;;6252435;22;20085;-79
2022/11/16 09:24:46;;;;;;;29.45;17.25;;;;;;;;;;6252749;22;20453;-79
2022/11/16 09:27:13;;;;;;;30.48;15.63;;;;;;;;;;6280370;22;20018;-80
2022/11/16 09:29:39;;;;;;;31.88;17.15;;;;;;;;;;6251784;22;20065;-79
2022/11/16 09:32:06;;;;;;;33.40;17.50;;;;;;;;;;6278403;22;20057;-79
2022/11/16 09:34:35;;;;;;;34.83;17.90;;;;;;;;;;6250708;22;19996;-79
2022/11/16 09:37:01;;;;;;;36.08;17.40;;;;;;;;;;6251285;22;20011;-79
2022/11/16 09:39:30;;;;;;;33.33;17.60;;;;;;;;;;6278091;22;20339;-79
2022/11/16 09:41:56;;;;;;;32.22;17.35;;;;;;;;;;6277997;22;19999;-79
2022/11/16 09:44:41;;;;;;;34.00;16.58;;;;;;;;;;6278304;22;20439;-79
2022/11/16 09:47:12;;;;;;;32.13;16.17;;;;;;;;;;6252329;22;20007;-79
2022/11/16 09:49:40;;;;;;;26.65;15.18;;;;;;;;;;6280342;22;20000;-79
2022/11/16 09:52:09;;;;;;;28.88;16.17;;;;;;;;;;6279699;22;20054;-79
2022/11/16 09:54:39;;;;;;;27.73;16.08;;;;;;;;;;6252897;22;20051;-79
2022/11/16 09:57:09;;;;;;;36.00;18.13;;;;;;;;;;6279211;22;20336;-79
2022/11/16 09:59:44;;;;;;;33.35;16.88;;;;;;;;;;6251084;22;20053;-79
2022/11/16 10:02:13;;;;;;;25.67;15.20;;;;;;;;;;6250436;22;19999;-80
2022/11/16 10:04:47;;;;;;;28.33;15.10;;;;;;;;;;6278393;22;20234;-80
2022/11/16 10:07:21;;;;;;;27.15;16.20;;;;;;;;;;6278050;22;19996;-79
2022/11/16 10:09:47;;;;;;;27.38;14.55;;;;;;;;;;6278328;22;19996;-80
2022/11/16 10:12:21;;;;;;;28.95;15.13;;;;;;;;;;6250985;22;19996;-80
2022/11/16 10:14:56;;;;;;;27.58;14.15;;;;;;;;;;6278952;22;20379;-80
2022/11/16 10:17:25;;;;;;;28.60;14.90;;;;;;;;;;6251408;22;20343;-80
2022/11/16 10:19:57;;;;;;;29.35;15.23;;;;;;;;;;6278942;22;20003;-79
2022/11/16 10:22:35;;;;;;;24.33;13.95;;;;;;;;;;6278839;22;19995;-80
2022/11/16 10:25:07;;;;;;;27.77;14.23;;;;;;;;;;6251401;22;20026;-80
2022/11/16 10:27:33;;;;;;;;;;;;;;;;;;6279916;22;20000;-80
2022/11/16 10:30:14;;;;;;;23.85;13.20;;;;;;;;;;6277692;22;20345;-80
2022/11/16 10:32:59;;;;;;;25.08;12.95;;;;;;;;;;6279355;22;20348;-80
2022/11/16 10:35:25;;;;;;;27.27;14.18;;;;;;;;;;6278725;22;19999;-80
2022/11/16 10:37:51;;;;;;;25.20;13.25;;;;;;;;;;6278928;22;20071;-80
2022/11/16 10:40:20;;;;;;;24.45;13.90;;;;;;;;;;6251757;22;20087;-80
2022/11/16 10:42:53;;;;;;;22.73;11.93;;;;;;;;;;6278631;22;20000;-80
2022/11/16 10:45:23;;;;;;;24.40;12.55;;;;;;;;;;6278519;22;20031;-80
2022/11/16 10:47:53;;;;;;;22.00;12.25;;;;;;;;;;6278524;22;19999;-80
2022/11/16 10:50:31;;;;;;;22.33;13.02;;;;;;;;;;6279502;22;20443;-80
2022/11/16 10:52:57;;;;;;;24.85;13.00;;;;;;;;;;6251517;22;20072;-80
2022/11/16 10:55:23;;;;;;;23.67;12.77;;;;;;;;;;6278523;22;20000;-80
2022/11/16 10:57:54;;;;;;;24.45;13.00;;;;;;;;;;6278322;22;20000;-80
2022/11/16 11:00:34;;;;;;;22.58;12.70;;;;;;;;;;6277458;22;20527;-80
2022/11/16 11:03:00;;;;;;;21.67;12.73;;;;;;;;;;6277472;22;20431;-80
2022/11/16 11:05:26;;;;;;;25.35;13.95;;;;;;;;;;6277910;22;20083;-80
2022/11/16 11:08:06;;;;;;;22.58;12.77;;;;;;;;;;6278530;22;20006;-80
2022/11/16 11:10:34;;;;;;;22.50;13.10;;;;;;;;;;6251218;22;20073;-80
2022/11/16 11:13:05;;;;;;;22.17;12.77;;;;;;;;;;6251699;22;20027;-80
2022/11/16 11:15:31;;;;;;;25.73;14.50;;;;;;;;;;6250549;22;20011;-80
2022/11/16 11:18:23;;;;;;;27.15;13.27;;;;;;;;;;6280136;22;20061;-80
2022/11/16 11:20:51;;;;;;;19.67;12.03;;;;;;;;;;6274167;22;20004;-80
2022/11/16 11:23:21;;;;;;;26.17;13.10;;;;;;;;;;6281865;22;20003;-81
2022/11/16 11:25:53;;;;;;;23.83;13.68;;;;;;;;;;6281755;22;20342;-80
2022/11/16 11:28:25;;;;;;;23.50;12.25;;;;;;;;;;6282403;22;19996;-80
2022/11/16 11:31:02;;;;;;;21.33;13.27;;;;;;;;;;6281158;22;20019;-80
2022/11/16 11:33:43;;;;;;;22.55;13.45;;;;;;;;;;6281783;22;20447;-80
2022/11/16 11:36:17;;;;;;;23.48;12.52;;;;;;;;;;6285683;22;20007;-80
2022/11/16 11:39:04;;;;;;;23.27;13.07;;;;;;;;;;6304564;22;20034;-80
2022/11/16 11:41:34;;;;;;;22.05;11.63;;;;;;;;;;6294180;22;20004;-79
2022/11/16 11:44:05;;;;;;;21.52;12.93;;;;;;;;;;6280652;22;20031;-80
2022/11/16 11:46:34;;;;;;;20.52;11.85;;;;;;;;;;6253660;22;20014;-80
2022/11/16 11:49:14;;;;;;;22.40;11.63;;;;;;;;;;6253788;22;20004;-81
2022/11/16 11:51:41;;;;;;;21.50;12.23;;;;;;;;;;6254651;22;20060;-81
2022/11/16 11:54:16;;;;;;;18.83;11.27;;;;;;;;;;6282504;22;20003;-80
2022/11/16 11:56:42;;;;;;;19.55;12.32;;;;;;;;;;6251704;22;20000;-80
2022/11/16 11:59:15;;;;;;;19.23;11.32;;;;;;;;;;6279988;22;20339;-80
2022/11/16 12:01:41;;;;;;;18.40;10.85;;;;;;;;;;6279812;22;20502;-80
2022/11/16 12:04:23;;;;;;;18.67;10.43;;;;;;;;;;6279205;22;20008;-80
2022/11/16 12:06:52;;;;;;;14.98;9.77;;;;;;;;;;6282006;22;20006;-80
2022/11/16 12:09:27;;;;;;;18.60;10.50;;;;;;;;;;6280862;22;19999;-80
2022/11/16 12:11:53;;;;;;;18.52;11.18;;;;;;;;;;6280217;22;20022;-80
2022/11/16 12:14:45;;;;;;;17.30;10.05;;;;;;;;;;6280908;22;19999;-80
2022/11/16 12:17:29;;;;;;;15.55;10.02;;;;;;;;;;6281053;22;20000;-80
2022/11/16 12:19:58;;;;;;;18.48;10.70;;;;;;;;;;6281213;22;20008;-80
2022/11/16 12:22:27;;;;;;;17.10;10.63;;;;;;;;;;6253719;22;20004;-80
2022/11/16 12:25:02;;;;;;;17.50;10.07;;;;;;;;;;6253014;22;19999;-80
2022/11/16 12:27:47;;;;;;;19.17;10.35;;;;;;;;;;6281875;22;20020;-80
2022/11/16 12:30:16;;;;;;;16.27;9.95;;;;;;;;;;6280564;22;20007;-80
2022/11/16 12:32:51;;;;;;;17.80;9.85;;;;;;;;;;6253803;22;20008;-80
2022/11/16 12:35:20;;;;;;;16.63;8.93;;;;;;;;;;6279796;22;20340;-80
2022/11/16 12:37:56;;;;;;;16.33;9.77;;;;;;;;;;6280561;22;20444;-80
2022/11/16 12:40:25;;;;;;;15.38;8.43;;;;;;;;;;6280558;22;20011;-80
2022/11/16 12:43:06;;;;;;;14.15;9.40;;;;;;;;;;6280460;22;20204;-80
2022/11/16 12:45:49;;;;;;;17.30;9.57;;;;;;;;;;6279580;22;20008;-79
2022/11/16 12:48:15;;;;;;;18.10;9.30;;;;;;;;;;6253453;22;19999;-80
2022/11/16 12:50:54;;;;;;;13.98;8.55;;;;;;;;;;6279902;22;20416;-80
2022/11/16 12:53:26;;;;;;;14.88;8.43;;;;;;;;;;6280404;22;20789;-80
2022/11/16 12:56:08;;;;;;;15.52;9.70;;;;;;;;;;6279059;22;20004;-80
2022/11/16 12:58:43;;;;;;;15.48;8.77;;;;;;;;;;6279514;22;20004;-80
2022/11/16 13:01:28;;;;;;;15.05;9.32;;;;;;;;;;6252738;22;20008;-80
2022/11/16 13:03:55;;;;;;;15.13;9.13;;;;;;;;;;6278873;22;20003;-80
2022/11/16 13:06:29;;;;;;;16.08;9.05;;;;;;;;;;6280130;22;20305;-80
2022/11/16 13:09:00;;;;;;;16.23;9.80;;;;;;;;;;6280201;22;20045;-80
2022/11/16 13:11:35;;;;;;;17.48;9.40;;;;;;;;;;6280647;22;20004;-80
2022/11/16 13:14:04;;;;;;;15.55;9.20;;;;;;;;;;6279410;22;20008;-80
2022/11/16 13:16:31;;;;;;;18.20;9.80;;;;;;;;;;6279499;22;20049;-80
2022/11/16 13:18:58;;;;;;;13.90;8.70;;;;;;;;;;6279419;22;20004;-80
2022/11/16 13:21:30;;;;;;;14.73;9.13;;;;;;;;;;6252914;22;20000;-80
2022/11/16 13:24:04;;;;;;;15.95;9.25;;;;;;;;;;6279638;22;19999;-80
2022/11/16 13:26:38;;;;;;;16.30;8.38;;;;;;;;;;6281193;22;20050;-80
2022/11/16 13:29:37;;;;;;;14.43;8.30;;;;;;;;;;6279837;22;19995;-80
2022/11/16 13:32:35;;;;;;;14.13;8.13;;;;;;;;;;6103740;23;20009;-80
2022/11/16 13:35:03;;;;;;;13.27;7.90;;;;;;;;;;5987430;24;20091;-80
2022/11/16 13:37:38;;;;;;;13.27;8.02;;;;;;;;;;5984242;24;20589;-80
2022/11/16 13:40:04;;;;;;;14.07;7.75;;;;;;;;;;5983665;24;20510;-80
2022/11/16 13:42:32;;;;;;;14.00;7.80;;;;;;;;;;5991960;24;20009;-79
2022/11/16 13:45:09;;;;;;;13.82;8.30;;;;;;;;;;6007308;23;20035;-79
2022/11/16 13:47:35;;;;;;;18.08;9.98;;;;;;;;;;6022856;23;20110;-79
2022/11/16 13:50:03;;;;;;;15.65;9.27;;;;;;;;;;6021100;23;20014;-79
2022/11/16 13:52:45;;;;;;;20.63;10.20;;;;;;;;;;6013946;23;20096;-79
2022/11/16 13:55:23;;;;;;;14.55;8.77;;;;;;;;;;6013178;23;20626;-80
2022/11/16 13:57:50;;;;;;;14.18;8.48;;;;;;;;;;6012548;23;20015;-81
2022/11/16 14:00:21;;;;;;;16.85;9.35;;;;;;;;;;6012711;23;20341;-80
2022/11/16 14:02:47;;;;;;;15.85;8.02;;;;;;;;;;6012859;23;20503;-80
2022/11/16 14:05:14;;;;;;;15.63;9.40;;;;;;;;;;6012350;23;20007;-80
2022/11/16 14:07:46;;;;;;;13.95;8.73;;;;;;;;;;6073315;23;20013;-80
2022/11/16 14:10:31;;;;;;;17.15;9.50;;;;;;;;;;6171324;23;20000;-80
2022/11/16 14:12:58;;;;;;;21.00;11.98;;;;;;;;;;6231046;23;20012;-79
2022/11/16 14:15:29;;;;;;;17.70;10.60;;;;;;;;;;6259391;23;20004;-80
2022/11/16 14:17:56;;;;;;;14.75;8.48;;;;;;;;;;6261502;23;20133;-80
2022/11/16 14:20:30;;;;;;;14.68;8.13;;;;;;;;;;6229724;23;20008;-81
2022/11/16 14:23:11;;;;;;;12.93;7.90;;;;;;;;;;6250459;23;20000;-81
2022/11/16 14:25:40;;;;;;;14.40;7.70;;;;;;;;;;6225338;23;20926;-81
2022/11/16 14:28:25;;;;;;;17.45;9.48;;;;;;;;;;6250328;23;20024;-81
2022/11/16 14:30:55;;;;;;;13.48;8.50;;;;;;;;;;6250971;23;20004;-81
2022/11/16 14:33:30;;;;;;;14.18;7.93;;;;;;;;;;6224096;23;20016;-81
2022/11/16 14:35:57;;;;;;;15.27;8.55;;;;;;;;;;6224546;23;20054;-81
2022/11/16 14:38:29;;;;;;;12.95;7.82;;;;;;;;;;6251557;23;20613;-80
2022/11/16 14:40:55;;;;;;;15.02;8.07;;;;;;;;;;6223836;23;20000;-82
2022/11/16 14:43:26;;;;;;;13.05;7.30;;;;;;;;;;6250604;23;20007;-81
2022/11/16 14:45:57;;;;;;;13.00;8.45;;;;;;;;;;6278015;22;20525;-81
2022/11/16 14:48:25;;;;;;;15.80;10.05;;;;;;;;;;6281012;22;20027;-81
2022/11/16 14:51:03;;;;;;;12.50;8.23;;;;;;;;;;6282414;22;19996;-81
2022/11/16 14:53:30;;;;;;;12.95;7.75;;;;;;;;;;6267843;22;20086;-80
2022/11/16 14:56:06;;;;;;;13.95;8.05;;;;;;;;;;6302064;22;19995;-82
2022/11/16 14:58:33;;;;;;;14.95;8.00;;;;;;;;;;6287730;22;20007;-82
2022/11/16 15:01:01;;;;;;;14.38;7.75;;;;;;;;;;6257387;22;20497;-81
2022/11/16 15:03:36;;;;;;;13.63;7.68;;;;;;;;;;6254017;22;20011;-82